sensor_id;sensor_type;location;lat;lon;timestamp;P1;P2;P0
55043;PMS5003;54902;50.420;18.854;2023-04-26T00:00:23;5;5;4
55043;PMS5003;54902;50.420;18.854;2023-04-26T00:00:54;5;5;4
55043;PMS5003;54902;50.420;18.854;2023-04-26T00:01:26;5;5;4
55043;PMS5003;54902;50.420;18.854;2023-04-26T00:01:58;7;7;6
55043;PMS5003;54902;50.420;18.854;2023-04-26T00:02:29;7;7;6
55043;PMS5003;54902;50.420;18.854;2023-04-26T00:03:00;7;7;6
55043;PMS5003;54902;50.420;18.854;2023-04-26T00:03:33;7;7;6
55043;PMS5003;54902;50.420;18.854;2023-04-26T00:04:04;7;7;6
55043;PMS5003;54902;50.420;18.854;2023-04-26T00:04:37;7;7;6
55043;PMS5003;54902;50.420;18.854;2023-04-26T00:05:09;7;7;6
55043;PMS5003;54902;50.420;18.854;2023-04-26T00:05:40;7;7;6
55043;PMS5003;54902;50.420;18.854;2023-04-26T00:06:12;7;7;6
55043;PMS5003;54902;50.420;18.854;2023-04-26T00:06:45;7;7;6
55043;PMS5003;54902;50.420;18.854;2023-04-26T00:07:18;8;8;7
55043;PMS5003;54902;50.420;18.854;2023-04-26T00:07:49;8;8;7
55043;PMS5003;54902;50.420;18.854;2023-04-26T00:08:20;8;8;7
55043;PMS5003;54902;50.420;18.854;2023-04-26T00:08:51;8;8;7
55043;PMS5003;54902;50.420;18.854;2023-04-26T00:09:22;8;8;7
55043;PMS5003;54902;50.420;18.854;2023-04-26T00:09:53;8;8;7
55043;PMS5003;54902;50.420;18.854;2023-04-26T00:10:24;8;8;7
55043;PMS5003;54902;50.420;18.854;2023-04-26T00:10:55;8;8;7
55043;PMS5003;54902;50.420;18.854;2023-04-26T00:11:26;8;8;7
55043;PMS5003;54902;50.420;18.854;2023-04-26T00:11:57;8;8;7
55043;PMS5003;54902;50.420;18.854;2023-04-26T00:12:28;8;8;7
55043;PMS5003;54902;50.420;18.854;2023-04-26T00:12:59;8;8;7
55043;PMS5003;54902;50.420;18.854;2023-04-26T00:13:30;8;8;7
55043;PMS5003;54902;50.420;18.854;2023-04-26T00:14:01;8;8;7
55043;PMS5003;54902;50.420;18.854;2023-04-26T00:14:32;8;8;7
55043;PMS5003;54902;50.420;18.854;2023-04-26T00:15:03;8;8;7
55043;PMS5003;54902;50.420;18.854;2023-04-26T00:15:35;8;8;7
55043;PMS5003;54902;50.420;18.854;2023-04-26T00:16:06;8;8;7
55043;PMS5003;54902;50.420;18.854;2023-04-26T00:16:37;8;8;7
55043;PMS5003;54902;50.420;18.854;2023-04-26T00:17:08;8;8;7
55043;PMS5003;54902;50.420;18.854;2023-04-26T00:17:39;8;8;7
55043;PMS5003;54902;50.420;18.854;2023-04-26T00:18:11;8;8;7
55043;PMS5003;54902;50.420;18.854;2023-04-26T00:18:42;8;8;7
55043;PMS5003;54902;50.420;18.854;2023-04-26T00:19:15;8;8;7
55043;PMS5003;54902;50.420;18.854;2023-04-26T00:19:47;8;8;7
55043;PMS5003;54902;50.420;18.854;2023-04-26T00:20:18;8;8;7
55043;PMS5003;54902;50.420;18.854;2023-04-26T00:20:49;8;8;7
55043;PMS5003;54902;50.420;18.854;2023-04-26T00:21:21;8;8;7
55043;PMS5003;54902;50.420;18.854;2023-04-26T00:21:51;8;8;7
55043;PMS5003;54902;50.420;18.854;2023-04-26T00:22:23;8;8;7
55043;PMS5003;54902;50.420;18.854;2023-04-26T00:22:54;8;8;7
55043;PMS5003;54902;50.420;18.854;2023-04-26T00:23:25;3;3;3
55043;PMS5003;54902;50.420;18.854;2023-04-26T00:23:56;3;3;3
55043;PMS5003;54902;50.420;18.854;2023-04-26T00:24:27;3;3;3
55043;PMS5003;54902;50.420;18.854;2023-04-26T00:24:58;3;3;3
55043;PMS5003;54902;50.420;18.854;2023-04-26T00:25:29;3;3;3
55043;PMS5003;54902;50.420;18.854;2023-04-26T00:26:01;3;3;3
55043;PMS5003;54902;50.420;18.854;2023-04-26T00:26:32;3;3;3
55043;PMS5003;54902;50.420;18.854;2023-04-26T00:27:04;3;3;3
55043;PMS5003;54902;50.420;18.854;2023-04-26T00:27:39;3;3;3
55043;PMS5003;54902;50.420;18.854;2023-04-26T00:28:11;6;6;4
55043;PMS5003;54902;50.420;18.854;2023-04-26T00:28:42;6;6;4
55043;PMS5003;54902;50.420;18.854;2023-04-26T00:29:13;6;6;4
55043;PMS5003;54902;50.420;18.854;2023-04-26T00:29:43;6;6;4
55043;PMS5003;54902;50.420;18.854;2023-04-26T00:30:15;6;6;4
55043;PMS5003;54902;50.420;18.854;2023-04-26T00:30:46;6;6;4
55043;PMS5003;54902;50.420;18.854;2023-04-26T00:31:18;6;6;4
55043;PMS5003;54902;50.420;18.854;2023-04-26T00:31:49;6;6;4
55043;PMS5003;54902;50.420;18.854;2023-04-26T00:32:20;6;6;4
55043;PMS5003;54902;50.420;18.854;2023-04-26T00:32:51;6;6;4
55043;PMS5003;54902;50.420;18.854;2023-04-26T00:33:24;6;6;4
55043;PMS5003;54902;50.420;18.854;2023-04-26T00:33:56;6;6;4
55043;PMS5003;54902;50.420;18.854;2023-04-26T00:35:05;6;6;4
55043;PMS5003;54902;50.420;18.854;2023-04-26T00:35:37;6;6;4
55043;PMS5003;54902;50.420;18.854;2023-04-26T00:36:08;6;6;4
55043;PMS5003;54902;50.420;18.854;2023-04-26T00:36:39;6;6;4
55043;PMS5003;54902;50.420;18.854;2023-04-26T00:37:11;6;6;4
55043;PMS5003;54902;50.420;18.854;2023-04-26T00:37:42;6;6;4
55043;PMS5003;54902;50.420;18.854;2023-04-26T00:38:13;6;6;4
55043;PMS5003;54902;50.420;18.854;2023-04-26T00:38:44;6;6;4
55043;PMS5003;54902;50.420;18.854;2023-04-26T00:39:16;6;6;4
55043;PMS5003;54902;50.420;18.854;2023-04-26T00:39:46;6;6;4
55043;PMS5003;54902;50.420;18.854;2023-04-26T00:40:18;6;6;4
55043;PMS5003;54902;50.420;18.854;2023-04-26T00:40:50;6;6;4
55043;PMS5003;54902;50.420;18.854;2023-04-26T00:41:20;6;6;4
55043;PMS5003;54902;50.420;18.854;2023-04-26T00:41:52;6;6;4
55043;PMS5003;54902;50.420;18.854;2023-04-26T00:42:23;6;6;4
55043;PMS5003;54902;50.420;18.854;2023-04-26T00:42:57;6;6;4
55043;PMS5003;54902;50.420;18.854;2023-04-26T00:43:28;6;6;4
55043;PMS5003;54902;50.420;18.854;2023-04-26T00:43:59;6;6;4
55043;PMS5003;54902;50.420;18.854;2023-04-26T00:44:30;6;6;4
55043;PMS5003;54902;50.420;18.854;2023-04-26T00:45:01;6;6;4
55043;PMS5003;54902;50.420;18.854;2023-04-26T00:45:33;6;6;4
55043;PMS5003;54902;50.420;18.854;2023-04-26T00:46:08;6;6;4
55043;PMS5003;54902;50.420;18.854;2023-04-26T00:46:39;6;6;4
55043;PMS5003;54902;50.420;18.854;2023-04-26T00:47:11;6;6;4
55043;PMS5003;54902;50.420;18.854;2023-04-26T00:47:42;4;4;3
55043;PMS5003;54902;50.420;18.854;2023-04-26T00:48:13;4;4;3
55043;PMS5003;54902;50.420;18.854;2023-04-26T00:48:45;4;4;3
55043;PMS5003;54902;50.420;18.854;2023-04-26T00:49:18;4;4;2
55043;PMS5003;54902;50.420;18.854;2023-04-26T00:49:51;4;4;2
55043;PMS5003;54902;50.420;18.854;2023-04-26T00:50:22;4;4;2
55043;PMS5003;54902;50.420;18.854;2023-04-26T00:50:54;4;4;2
55043;PMS5003;54902;50.420;18.854;2023-04-26T00:51:25;4;4;2
55043;PMS5003;54902;50.420;18.854;2023-04-26T00:51:57;4;4;2
55043;PMS5003;54902;50.420;18.854;2023-04-26T00:52:28;4;4;2
55043;PMS5003;54902;50.420;18.854;2023-04-26T00:53:01;4;4;2
55043;PMS5003;54902;50.420;18.854;2023-04-26T00:53:32;4;4;2
55043;PMS5003;54902;50.420;18.854;2023-04-26T00:54:06;4;4;2
55043;PMS5003;54902;50.420;18.854;2023-04-26T00:54:38;3;3;3
55043;PMS5003;54902;50.420;18.854;2023-04-26T00:55:09;3;3;3
55043;PMS5003;54902;50.420;18.854;2023-04-26T00:55:40;4;4;4
55043;PMS5003;54902;50.420;18.854;2023-04-26T00:56:12;4;4;4
55043;PMS5003;54902;50.420;18.854;2023-04-26T00:56:43;4;4;4
55043;PMS5003;54902;50.420;18.854;2023-04-26T00:57:15;4;4;4
55043;PMS5003;54902;50.420;18.854;2023-04-26T00:57:46;4;4;4
55043;PMS5003;54902;50.420;18.854;2023-04-26T00:58:18;4;4;4
55043;PMS5003;54902;50.420;18.854;2023-04-26T00:58:49;4;4;4
55043;PMS5003;54902;50.420;18.854;2023-04-26T00:59:20;4;4;4
55043;PMS5003;54902;50.420;18.854;2023-04-26T00:59:51;8;8;5
55043;PMS5003;54902;50.420;18.854;2023-04-26T01:00:22;8;8;5
55043;PMS5003;54902;50.420;18.854;2023-04-26T01:00:53;8;8;5
55043;PMS5003;54902;50.420;18.854;2023-04-26T01:01:25;8;8;5
55043;PMS5003;54902;50.420;18.854;2023-04-26T01:01:56;8;8;5
55043;PMS5003;54902;50.420;18.854;2023-04-26T01:02:27;8;8;5
55043;PMS5003;54902;50.420;18.854;2023-04-26T01:02:57;8;8;5
55043;PMS5003;54902;50.420;18.854;2023-04-26T01:03:29;8;8;5
55043;PMS5003;54902;50.420;18.854;2023-04-26T01:04:00;8;8;5
55043;PMS5003;54902;50.420;18.854;2023-04-26T01:04:32;8;8;5
55043;PMS5003;54902;50.420;18.854;2023-04-26T01:05:04;9;9;6
55043;PMS5003;54902;50.420;18.854;2023-04-26T01:05:36;9;9;6
55043;PMS5003;54902;50.420;18.854;2023-04-26T01:06:07;9;9;6
55043;PMS5003;54902;50.420;18.854;2023-04-26T01:06:38;9;9;6
55043;PMS5003;54902;50.420;18.854;2023-04-26T01:07:10;9;9;6
55043;PMS5003;54902;50.420;18.854;2023-04-26T01:07:41;9;9;6
55043;PMS5003;54902;50.420;18.854;2023-04-26T01:08:13;9;9;6
55043;PMS5003;54902;50.420;18.854;2023-04-26T01:08:49;9;9;6
55043;PMS5003;54902;50.420;18.854;2023-04-26T01:09:23;9;9;6
55043;PMS5003;54902;50.420;18.854;2023-04-26T01:09:53;8;8;5
55043;PMS5003;54902;50.420;18.854;2023-04-26T01:10:25;3;3;2
55043;PMS5003;54902;50.420;18.854;2023-04-26T01:10:58;3;3;2
55043;PMS5003;54902;50.420;18.854;2023-04-26T01:11:29;3;3;2
55043;PMS5003;54902;50.420;18.854;2023-04-26T01:12:02;3;3;2
55043;PMS5003;54902;50.420;18.854;2023-04-26T01:12:34;3;3;2
55043;PMS5003;54902;50.420;18.854;2023-04-26T01:13:06;3;3;2
55043;PMS5003;54902;50.420;18.854;2023-04-26T01:13:37;3;3;2
55043;PMS5003;54902;50.420;18.854;2023-04-26T01:14:11;3;3;2
55043;PMS5003;54902;50.420;18.854;2023-04-26T01:14:45;3;3;2
55043;PMS5003;54902;50.420;18.854;2023-04-26T01:15:17;3;3;2
55043;PMS5003;54902;50.420;18.854;2023-04-26T01:15:47;7;6;4
55043;PMS5003;54902;50.420;18.854;2023-04-26T01:16:18;7;6;4
55043;PMS5003;54902;50.420;18.854;2023-04-26T01:16:50;7;6;4
55043;PMS5003;54902;50.420;18.854;2023-04-26T01:17:22;7;6;4
55043;PMS5003;54902;50.420;18.854;2023-04-26T01:17:58;7;6;4
55043;PMS5003;54902;50.420;18.854;2023-04-26T01:18:29;7;6;4
55043;PMS5003;54902;50.420;18.854;2023-04-26T01:20:17;5;4;3
55043;PMS5003;54902;50.420;18.854;2023-04-26T01:20:48;5;4;3
55043;PMS5003;54902;50.420;18.854;2023-04-26T01:21:22;3;3;2
55043;PMS5003;54902;50.420;18.854;2023-04-26T01:21:54;3;3;2
55043;PMS5003;54902;50.420;18.854;2023-04-26T01:22:25;3;3;2
55043;PMS5003;54902;50.420;18.854;2023-04-26T01:22:57;3;3;2
55043;PMS5003;54902;50.420;18.854;2023-04-26T01:23:28;3;3;2
55043;PMS5003;54902;50.420;18.854;2023-04-26T01:23:59;3;3;2
55043;PMS5003;54902;50.420;18.854;2023-04-26T01:24:31;3;3;2
55043;PMS5003;54902;50.420;18.854;2023-04-26T01:25:05;3;3;2
55043;PMS5003;54902;50.420;18.854;2023-04-26T01:25:41;3;3;2
55043;PMS5003;54902;50.420;18.854;2023-04-26T01:26:12;3;3;2
55043;PMS5003;54902;50.420;18.854;2023-04-26T01:26:43;4;4;3
55043;PMS5003;54902;50.420;18.854;2023-04-26T01:27:17;4;4;3
55043;PMS5003;54902;50.420;18.854;2023-04-26T01:27:48;4;4;3
55043;PMS5003;54902;50.420;18.854;2023-04-26T01:28:19;4;4;3
55043;PMS5003;54902;50.420;18.854;2023-04-26T01:28:50;4;4;3
55043;PMS5003;54902;50.420;18.854;2023-04-26T01:29:21;4;4;3
55043;PMS5003;54902;50.420;18.854;2023-04-26T01:29:53;4;4;3
55043;PMS5003;54902;50.420;18.854;2023-04-26T01:30:24;4;4;3
55043;PMS5003;54902;50.420;18.854;2023-04-26T01:30:55;3;3;2
55043;PMS5003;54902;50.420;18.854;2023-04-26T01:31:26;3;3;2
55043;PMS5003;54902;50.420;18.854;2023-04-26T01:31:57;4;3;2
55043;PMS5003;54902;50.420;18.854;2023-04-26T01:32:28;4;3;2
55043;PMS5003;54902;50.420;18.854;2023-04-26T01:32:59;4;3;2
55043;PMS5003;54902;50.420;18.854;2023-04-26T01:33:30;4;3;2
55043;PMS5003;54902;50.420;18.854;2023-04-26T01:34:01;4;3;2
55043;PMS5003;54902;50.420;18.854;2023-04-26T01:34:32;4;3;2
55043;PMS5003;54902;50.420;18.854;2023-04-26T01:35:04;4;3;2
55043;PMS5003;54902;50.420;18.854;2023-04-26T01:35:35;4;3;2
55043;PMS5003;54902;50.420;18.854;2023-04-26T01:36:09;4;3;2
55043;PMS5003;54902;50.420;18.854;2023-04-26T01:36:40;4;3;2
55043;PMS5003;54902;50.420;18.854;2023-04-26T01:37:11;7;6;4
55043;PMS5003;54902;50.420;18.854;2023-04-26T01:37:42;7;6;4
55043;PMS5003;54902;50.420;18.854;2023-04-26T01:38:13;7;6;4
55043;PMS5003;54902;50.420;18.854;2023-04-26T01:38:46;7;6;4
55043;PMS5003;54902;50.420;18.854;2023-04-26T01:39:17;7;6;4
55043;PMS5003;54902;50.420;18.854;2023-04-26T01:39:48;7;6;4
55043;PMS5003;54902;50.420;18.854;2023-04-26T01:40:19;7;6;4
55043;PMS5003;54902;50.420;18.854;2023-04-26T01:40:51;7;6;4
55043;PMS5003;54902;50.420;18.854;2023-04-26T01:41:22;7;6;4
55043;PMS5003;54902;50.420;18.854;2023-04-26T01:41:55;7;6;4
55043;PMS5003;54902;50.420;18.854;2023-04-26T01:42:27;5;4;3
55043;PMS5003;54902;50.420;18.854;2023-04-26T01:42:59;5;4;3
55043;PMS5003;54902;50.420;18.854;2023-04-26T01:43:32;5;4;3
55043;PMS5003;54902;50.420;18.854;2023-04-26T01:44:03;5;4;3
55043;PMS5003;54902;50.420;18.854;2023-04-26T01:44:34;5;4;3
55043;PMS5003;54902;50.420;18.854;2023-04-26T01:45:05;5;4;3
55043;PMS5003;54902;50.420;18.854;2023-04-26T01:45:37;5;4;3
55043;PMS5003;54902;50.420;18.854;2023-04-26T01:46:08;5;4;3
55043;PMS5003;54902;50.420;18.854;2023-04-26T01:46:38;5;5;3
55043;PMS5003;54902;50.420;18.854;2023-04-26T01:47:09;5;5;3
55043;PMS5003;54902;50.420;18.854;2023-04-26T01:47:40;3;3;2
55043;PMS5003;54902;50.420;18.854;2023-04-26T01:48:11;3;3;2
55043;PMS5003;54902;50.420;18.854;2023-04-26T01:48:42;3;3;2
55043;PMS5003;54902;50.420;18.854;2023-04-26T01:49:13;3;3;2
55043;PMS5003;54902;50.420;18.854;2023-04-26T01:49:44;3;3;2
55043;PMS5003;54902;50.420;18.854;2023-04-26T01:50:15;3;3;2
55043;PMS5003;54902;50.420;18.854;2023-04-26T01:50:46;3;3;2
55043;PMS5003;54902;50.420;18.854;2023-04-26T01:51:17;3;3;2
55043;PMS5003;54902;50.420;18.854;2023-04-26T01:51:48;3;3;2
55043;PMS5003;54902;50.420;18.854;2023-04-26T01:52:19;3;3;2
55043;PMS5003;54902;50.420;18.854;2023-04-26T01:52:52;6;6;4
55043;PMS5003;54902;50.420;18.854;2023-04-26T01:53:23;2;2;2
55043;PMS5003;54902;50.420;18.854;2023-04-26T01:53:53;2;2;2
55043;PMS5003;54902;50.420;18.854;2023-04-26T01:54:24;2;2;2
55043;PMS5003;54902;50.420;18.854;2023-04-26T01:54:55;2;2;2
55043;PMS5003;54902;50.420;18.854;2023-04-26T01:55:26;2;2;2
55043;PMS5003;54902;50.420;18.854;2023-04-26T01:56:00;2;2;2
55043;PMS5003;54902;50.420;18.854;2023-04-26T01:56:32;2;2;2
55043;PMS5003;54902;50.420;18.854;2023-04-26T01:57:03;2;2;2
55043;PMS5003;54902;50.420;18.854;2023-04-26T01:57:34;2;2;2
55043;PMS5003;54902;50.420;18.854;2023-04-26T01:58:05;4;4;4
55043;PMS5003;54902;50.420;18.854;2023-04-26T01:58:36;4;4;4
55043;PMS5003;54902;50.420;18.854;2023-04-26T01:59:07;4;4;4
55043;PMS5003;54902;50.420;18.854;2023-04-26T01:59:38;4;4;4
55043;PMS5003;54902;50.420;18.854;2023-04-26T02:00:09;4;4;4
55043;PMS5003;54902;50.420;18.854;2023-04-26T02:00:40;4;4;4
55043;PMS5003;54902;50.420;18.854;2023-04-26T02:01:11;4;4;4
55043;PMS5003;54902;50.420;18.854;2023-04-26T02:01:42;4;4;4
55043;PMS5003;54902;50.420;18.854;2023-04-26T02:02:15;4;4;4
55043;PMS5003;54902;50.420;18.854;2023-04-26T02:02:48;3;3;3
55043;PMS5003;54902;50.420;18.854;2023-04-26T02:03:19;4;4;3
55043;PMS5003;54902;50.420;18.854;2023-04-26T02:03:50;4;4;3
55043;PMS5003;54902;50.420;18.854;2023-04-26T02:04:22;4;4;3
55043;PMS5003;54902;50.420;18.854;2023-04-26T02:04:53;4;4;3
55043;PMS5003;54902;50.420;18.854;2023-04-26T02:05:24;4;4;3
55043;PMS5003;54902;50.420;18.854;2023-04-26T02:05:55;4;4;3
55043;PMS5003;54902;50.420;18.854;2023-04-26T02:06:27;4;4;3
55043;PMS5003;54902;50.420;18.854;2023-04-26T02:06:58;4;4;3
55043;PMS5003;54902;50.420;18.854;2023-04-26T02:07:28;4;4;3
55043;PMS5003;54902;50.420;18.854;2023-04-26T02:08:00;4;4;3
55043;PMS5003;54902;50.420;18.854;2023-04-26T02:08:31;7;7;6
55043;PMS5003;54902;50.420;18.854;2023-04-26T02:09:02;7;7;6
55043;PMS5003;54902;50.420;18.854;2023-04-26T02:09:34;7;7;6
55043;PMS5003;54902;50.420;18.854;2023-04-26T02:10:05;7;7;6
55043;PMS5003;54902;50.420;18.854;2023-04-26T02:10:37;7;7;6
55043;PMS5003;54902;50.420;18.854;2023-04-26T02:11:08;7;7;6
55043;PMS5003;54902;50.420;18.854;2023-04-26T02:11:39;7;7;6
55043;PMS5003;54902;50.420;18.854;2023-04-26T02:12:10;7;7;6
55043;PMS5003;54902;50.420;18.854;2023-04-26T02:12:41;7;7;6
55043;PMS5003;54902;50.420;18.854;2023-04-26T02:13:13;7;7;6
55043;PMS5003;54902;50.420;18.854;2023-04-26T02:13:44;3;3;2
55043;PMS5003;54902;50.420;18.854;2023-04-26T02:14:15;3;3;2
55043;PMS5003;54902;50.420;18.854;2023-04-26T02:14:46;3;3;2
55043;PMS5003;54902;50.420;18.854;2023-04-26T02:15:17;3;3;2
55043;PMS5003;54902;50.420;18.854;2023-04-26T02:15:48;3;3;2
55043;PMS5003;54902;50.420;18.854;2023-04-26T02:16:20;3;3;2
55043;PMS5003;54902;50.420;18.854;2023-04-26T02:16:51;3;3;2
55043;PMS5003;54902;50.420;18.854;2023-04-26T02:17:23;3;3;2
55043;PMS5003;54902;50.420;18.854;2023-04-26T02:17:55;3;3;2
55043;PMS5003;54902;50.420;18.854;2023-04-26T02:18:26;3;3;2
55043;PMS5003;54902;50.420;18.854;2023-04-26T02:18:59;1;1;1
55043;PMS5003;54902;50.420;18.854;2023-04-26T02:19:29;1;1;1
55043;PMS5003;54902;50.420;18.854;2023-04-26T02:20:01;1;1;1
55043;PMS5003;54902;50.420;18.854;2023-04-26T02:20:33;1;1;1
55043;PMS5003;54902;50.420;18.854;2023-04-26T02:21:06;1;1;1
55043;PMS5003;54902;50.420;18.854;2023-04-26T02:22:22;1;1;1
55043;PMS5003;54902;50.420;18.854;2023-04-26T02:22:55;1;1;1
55043;PMS5003;54902;50.420;18.854;2023-04-26T02:23:26;1;1;1
55043;PMS5003;54902;50.420;18.854;2023-04-26T02:23:57;1;1;1
55043;PMS5003;54902;50.420;18.854;2023-04-26T02:24:28;4;4;4
55043;PMS5003;54902;50.420;18.854;2023-04-26T02:24:59;4;4;4
55043;PMS5003;54902;50.420;18.854;2023-04-26T02:25:30;4;4;4
55043;PMS5003;54902;50.420;18.854;2023-04-26T02:26:02;4;4;4
55043;PMS5003;54902;50.420;18.854;2023-04-26T02:26:33;4;4;4
55043;PMS5003;54902;50.420;18.854;2023-04-26T02:27:05;4;4;4
55043;PMS5003;54902;50.420;18.854;2023-04-26T02:27:37;4;4;4
55043;PMS5003;54902;50.420;18.854;2023-04-26T02:28:07;4;4;4
55043;PMS5003;54902;50.420;18.854;2023-04-26T02:28:39;4;4;4
55043;PMS5003;54902;50.420;18.854;2023-04-26T02:29:11;4;4;4
55043;PMS5003;54902;50.420;18.854;2023-04-26T02:29:42;4;4;4
55043;PMS5003;54902;50.420;18.854;2023-04-26T02:30:13;4;4;4
55043;PMS5003;54902;50.420;18.854;2023-04-26T02:30:44;4;4;4
55043;PMS5003;54902;50.420;18.854;2023-04-26T02:31:15;4;4;4
55043;PMS5003;54902;50.420;18.854;2023-04-26T02:31:46;4;4;4
55043;PMS5003;54902;50.420;18.854;2023-04-26T02:32:18;4;4;4
55043;PMS5003;54902;50.420;18.854;2023-04-26T02:32:48;4;4;4
55043;PMS5003;54902;50.420;18.854;2023-04-26T02:33:21;4;4;4
55043;PMS5003;54902;50.420;18.854;2023-04-26T02:33:52;4;4;4
55043;PMS5003;54902;50.420;18.854;2023-04-26T02:34:23;4;4;4
55043;PMS5003;54902;50.420;18.854;2023-04-26T02:34:54;4;4;4
55043;PMS5003;54902;50.420;18.854;2023-04-26T02:35:25;4;4;4
55043;PMS5003;54902;50.420;18.854;2023-04-26T02:35:56;4;4;4
55043;PMS5003;54902;50.420;18.854;2023-04-26T02:36:27;4;4;4
55043;PMS5003;54902;50.420;18.854;2023-04-26T02:36:59;4;4;4
55043;PMS5003;54902;50.420;18.854;2023-04-26T02:37:31;4;4;4
55043;PMS5003;54902;50.420;18.854;2023-04-26T02:38:03;4;4;4
55043;PMS5003;54902;50.420;18.854;2023-04-26T02:38:34;4;4;4
55043;PMS5003;54902;50.420;18.854;2023-04-26T02:39:06;4;4;4
55043;PMS5003;54902;50.420;18.854;2023-04-26T02:39:36;4;4;4
55043;PMS5003;54902;50.420;18.854;2023-04-26T02:40:08;4;4;4
55043;PMS5003;54902;50.420;18.854;2023-04-26T02:40:40;4;4;4
55043;PMS5003;54902;50.420;18.854;2023-04-26T02:41:11;3;3;3
55043;PMS5003;54902;50.420;18.854;2023-04-26T02:41:42;3;3;3
55043;PMS5003;54902;50.420;18.854;2023-04-26T02:42:12;3;3;3
55043;PMS5003;54902;50.420;18.854;2023-04-26T02:42:44;3;3;3
55043;PMS5003;54902;50.420;18.854;2023-04-26T02:43:15;3;3;3
55043;PMS5003;54902;50.420;18.854;2023-04-26T02:43:46;3;3;3
55043;PMS5003;54902;50.420;18.854;2023-04-26T02:44:17;3;3;3
55043;PMS5003;54902;50.420;18.854;2023-04-26T02:44:47;3;3;3
55043;PMS5003;54902;50.420;18.854;2023-04-26T02:45:18;3;3;3
55043;PMS5003;54902;50.420;18.854;2023-04-26T02:45:49;3;3;3
55043;PMS5003;54902;50.420;18.854;2023-04-26T02:46:20;3;3;3
55043;PMS5003;54902;50.420;18.854;2023-04-26T02:46:51;3;3;3
55043;PMS5003;54902;50.420;18.854;2023-04-26T02:47:22;3;3;3
55043;PMS5003;54902;50.420;18.854;2023-04-26T02:47:53;3;3;3
55043;PMS5003;54902;50.420;18.854;2023-04-26T02:48:24;3;3;3
55043;PMS5003;54902;50.420;18.854;2023-04-26T02:48:55;3;3;3
55043;PMS5003;54902;50.420;18.854;2023-04-26T02:49:26;3;3;3
55043;PMS5003;54902;50.420;18.854;2023-04-26T02:49:58;3;3;3
55043;PMS5003;54902;50.420;18.854;2023-04-26T02:50:29;4;4;4
55043;PMS5003;54902;50.420;18.854;2023-04-26T02:51:00;4;4;4
55043;PMS5003;54902;50.420;18.854;2023-04-26T02:51:31;4;4;4
55043;PMS5003;54902;50.420;18.854;2023-04-26T02:52:03;4;4;4
55043;PMS5003;54902;50.420;18.854;2023-04-26T02:52:37;4;4;4
55043;PMS5003;54902;50.420;18.854;2023-04-26T02:53:08;4;4;3
55043;PMS5003;54902;50.420;18.854;2023-04-26T02:53:39;4;4;3
55043;PMS5003;54902;50.420;18.854;2023-04-26T02:54:10;4;4;3
55043;PMS5003;54902;50.420;18.854;2023-04-26T02:54:41;4;4;3
55043;PMS5003;54902;50.420;18.854;2023-04-26T02:55:12;4;4;3
55043;PMS5003;54902;50.420;18.854;2023-04-26T02:55:43;7;7;5
55043;PMS5003;54902;50.420;18.854;2023-04-26T02:56:14;7;7;5
55043;PMS5003;54902;50.420;18.854;2023-04-26T02:56:45;7;7;5
55043;PMS5003;54902;50.420;18.854;2023-04-26T02:57:16;7;7;5
55043;PMS5003;54902;50.420;18.854;2023-04-26T02:57:47;7;7;5
55043;PMS5003;54902;50.420;18.854;2023-04-26T02:58:18;7;7;5
55043;PMS5003;54902;50.420;18.854;2023-04-26T02:58:50;7;7;5
55043;PMS5003;54902;50.420;18.854;2023-04-26T02:59:21;7;7;5
55043;PMS5003;54902;50.420;18.854;2023-04-26T02:59:52;7;7;5
55043;PMS5003;54902;50.420;18.854;2023-04-26T03:00:23;7;7;5
55043;PMS5003;54902;50.420;18.854;2023-04-26T03:00:56;5;5;3
55043;PMS5003;54902;50.420;18.854;2023-04-26T03:01:28;5;5;3
55043;PMS5003;54902;50.420;18.854;2023-04-26T03:01:59;5;5;3
55043;PMS5003;54902;50.420;18.854;2023-04-26T03:02:30;5;5;3
55043;PMS5003;54902;50.420;18.854;2023-04-26T03:03:02;5;5;3
55043;PMS5003;54902;50.420;18.854;2023-04-26T03:03:33;5;5;3
55043;PMS5003;54902;50.420;18.854;2023-04-26T03:04:04;5;5;3
55043;PMS5003;54902;50.420;18.854;2023-04-26T03:04:34;5;5;3
55043;PMS5003;54902;50.420;18.854;2023-04-26T03:05:05;5;5;3
55043;PMS5003;54902;50.420;18.854;2023-04-26T03:05:38;5;5;3
55043;PMS5003;54902;50.420;18.854;2023-04-26T03:06:09;3;3;3
55043;PMS5003;54902;50.420;18.854;2023-04-26T03:06:40;3;3;3
55043;PMS5003;54902;50.420;18.854;2023-04-26T03:07:11;3;3;3
55043;PMS5003;54902;50.420;18.854;2023-04-26T03:07:42;3;3;3
55043;PMS5003;54902;50.420;18.854;2023-04-26T03:08:13;3;3;3
55043;PMS5003;54902;50.420;18.854;2023-04-26T03:08:44;3;3;3
55043;PMS5003;54902;50.420;18.854;2023-04-26T03:09:15;3;3;3
55043;PMS5003;54902;50.420;18.854;2023-04-26T03:09:47;3;3;3
55043;PMS5003;54902;50.420;18.854;2023-04-26T03:10:17;3;3;3
55043;PMS5003;54902;50.420;18.854;2023-04-26T03:10:48;3;3;3
55043;PMS5003;54902;50.420;18.854;2023-04-26T03:11:19;7;7;6
55043;PMS5003;54902;50.420;18.854;2023-04-26T03:11:51;7;7;6
55043;PMS5003;54902;50.420;18.854;2023-04-26T03:12:22;7;7;6
55043;PMS5003;54902;50.420;18.854;2023-04-26T03:12:52;7;7;6
55043;PMS5003;54902;50.420;18.854;2023-04-26T03:13:23;7;7;6
55043;PMS5003;54902;50.420;18.854;2023-04-26T03:13:54;7;7;6
55043;PMS5003;54902;50.420;18.854;2023-04-26T03:14:25;7;7;6
55043;PMS5003;54902;50.420;18.854;2023-04-26T03:14:56;7;7;6
55043;PMS5003;54902;50.420;18.854;2023-04-26T03:15:27;7;7;6
55043;PMS5003;54902;50.420;18.854;2023-04-26T03:15:58;7;7;6
55043;PMS5003;54902;50.420;18.854;2023-04-26T03:16:29;7;7;6
55043;PMS5003;54902;50.420;18.854;2023-04-26T03:17:01;7;7;6
55043;PMS5003;54902;50.420;18.854;2023-04-26T03:17:32;7;7;6
55043;PMS5003;54902;50.420;18.854;2023-04-26T03:18:03;7;7;6
55043;PMS5003;54902;50.420;18.854;2023-04-26T03:18:34;7;7;6
55043;PMS5003;54902;50.420;18.854;2023-04-26T03:19:05;7;7;6
55043;PMS5003;54902;50.420;18.854;2023-04-26T03:19:36;7;7;6
55043;PMS5003;54902;50.420;18.854;2023-04-26T03:20:07;7;7;6
55043;PMS5003;54902;50.420;18.854;2023-04-26T03:20:40;7;7;6
55043;PMS5003;54902;50.420;18.854;2023-04-26T03:21:12;7;7;6
55043;PMS5003;54902;50.420;18.854;2023-04-26T03:21:43;7;7;6
55043;PMS5003;54902;50.420;18.854;2023-04-26T03:22:14;3;3;3
55043;PMS5003;54902;50.420;18.854;2023-04-26T03:22:46;3;3;3
55043;PMS5003;54902;50.420;18.854;2023-04-26T03:23:17;3;3;3
55043;PMS5003;54902;50.420;18.854;2023-04-26T03:23:49;3;3;3
55043;PMS5003;54902;50.420;18.854;2023-04-26T03:24:20;3;3;3
55043;PMS5003;54902;50.420;18.854;2023-04-26T03:24:51;3;3;3
55043;PMS5003;54902;50.420;18.854;2023-04-26T03:25:22;3;3;3
55043;PMS5003;54902;50.420;18.854;2023-04-26T03:25:53;3;3;3
55043;PMS5003;54902;50.420;18.854;2023-04-26T03:26:23;3;3;3
55043;PMS5003;54902;50.420;18.854;2023-04-26T03:26:54;7;7;6
55043;PMS5003;54902;50.420;18.854;2023-04-26T03:27:25;7;7;6
55043;PMS5003;54902;50.420;18.854;2023-04-26T03:27:56;7;7;6
55043;PMS5003;54902;50.420;18.854;2023-04-26T03:28:27;7;7;6
55043;PMS5003;54902;50.420;18.854;2023-04-26T03:28:58;6;6;4
55043;PMS5003;54902;50.420;18.854;2023-04-26T03:29:29;6;6;4
55043;PMS5003;54902;50.420;18.854;2023-04-26T03:30:00;6;6;4
55043;PMS5003;54902;50.420;18.854;2023-04-26T03:30:33;6;6;4
55043;PMS5003;54902;50.420;18.854;2023-04-26T03:31:04;6;6;4
55043;PMS5003;54902;50.420;18.854;2023-04-26T03:31:35;6;6;4